createdAt,value
2023-05-08T00:02:07.790Z,5.38
2023-05-08T00:07:09.537Z,5.22
2023-05-08T00:12:11.274Z,5.08
2023-05-08T00:17:13.572Z,4.95
2023-05-08T00:22:15.334Z,4.88
2023-05-08T00:27:17.161Z,4.83
2023-05-08T00:32:19.088Z,4.78
2023-05-08T00:37:20.932Z,4.78
2023-05-08T00:42:22.735Z,4.92
2023-05-08T00:47:24.564Z,5.13
2023-05-08T00:52:29.685Z,5.37
2023-05-08T00:57:35.818Z,5.56
2023-05-08T01:02:38.477Z,5.72
2023-05-08T01:07:40.527Z,5.84
2023-05-08T01:13:00.627Z,5.90
2023-05-08T01:18:17.765Z,5.94
2023-05-08T01:23:47.292Z,5.95
2023-05-08T01:29:37.398Z,5.97
2023-05-08T01:34:46.932Z,5.94
2023-05-08T01:40:02.583Z,5.90
2023-05-08T01:45:11.130Z,5.88
2023-05-08T01:50:25.752Z,5.91
2023-05-08T01:55:34.585Z,5.92
2023-05-08T02:00:40.838Z,5.96
2023-05-08T02:05:44.147Z,6.02
2023-05-08T02:10:48.717Z,6.07
2023-05-08T02:15:54.780Z,6.09
2023-05-08T02:20:59.311Z,6.10
2023-05-08T02:26:03.994Z,6.09
2023-05-08T02:31:07.382Z,6.09
2023-05-08T02:36:13.743Z,6.12
2023-05-08T02:41:18.418Z,6.12
2023-05-08T02:46:27.834Z,6.15
2023-05-08T02:51:43.476Z,6.19
2023-05-08T02:57:13.278Z,6.26
2023-05-08T03:02:22.758Z,6.28
2023-05-08T03:07:26.044Z,6.31
2023-05-08T03:12:30.871Z,6.33
2023-05-08T03:17:35.451Z,6.35
2023-05-08T03:22:40.814Z,6.28
2023-05-08T03:27:44.118Z,6.27
2023-05-08T03:32:47.273Z,6.24
2023-05-08T03:37:49.285Z,6.23
2023-05-08T03:42:51.370Z,6.19
2023-05-08T03:47:54.183Z,6.11
2023-05-08T03:52:58.632Z,6.00
2023-05-08T03:58:37.150Z,5.93
2023-05-08T04:07:24.925Z,6.00
2023-05-08T04:12:37.298Z,5.94
2023-05-08T04:17:45.120Z,5.96
2023-05-08T04:22:50.714Z,6.04
2023-05-08T04:27:54.558Z,6.17
2023-05-08T04:32:58.140Z,6.31
2023-05-08T04:38:00.921Z,6.52
2023-05-08T04:43:02.745Z,7.30
2023-05-08T04:48:05.068Z,8.43
2023-05-08T04:53:07.194Z,9.33
2023-05-08T04:58:12.956Z,9.74
2023-05-08T05:03:15.512Z,9.73
2023-05-08T05:08:18.067Z,9.79
2023-05-08T05:13:19.988Z,9.76
2023-05-08T05:18:22.311Z,9.78
2023-05-08T05:23:24.909Z,9.71
2023-05-08T05:28:27.046Z,9.67
2023-05-08T05:33:28.828Z,9.69
2023-05-08T05:38:30.599Z,9.69
2023-05-08T05:43:33.262Z,9.63
2023-05-08T05:48:35.856Z,9.48
2023-05-08T05:53:37.882Z,9.15
2023-05-08T05:58:44.769Z,8.95
2023-05-08T06:03:47.578Z,9.20
2023-05-08T06:08:49.606Z,9.82
2023-05-08T06:13:51.353Z,10.07
2023-05-08T06:18:53.721Z,9.54
2023-05-08T06:23:55.475Z,9.22
2023-05-08T06:28:57.241Z,9.12
2023-05-08T06:33:59.077Z,9.21
2023-05-08T06:39:00.769Z,9.17
2023-05-08T06:44:02.682Z,8.96
2023-05-08T06:49:04.346Z,9.07
2023-05-08T06:54:08.308Z,9.33
2023-05-08T06:59:10.081Z,9.41
2023-05-08T07:04:11.859Z,9.70
2023-05-08T07:09:13.610Z,9.71
2023-05-08T07:14:15.338Z,9.58
2023-05-08T07:19:17.345Z,9.46
2023-05-08T07:24:19.068Z,9.39
2023-05-08T07:29:20.931Z,9.43
2023-05-08T07:34:22.826Z,9.38
2023-05-08T07:39:24.529Z,9.59
2023-05-08T07:44:26.240Z,9.84
2023-05-08T07:49:27.957Z,9.94
2023-05-08T07:54:29.633Z,10.24
2023-05-08T07:59:31.424Z,10.46
2023-05-08T08:04:33.467Z,11.01
2023-05-08T08:09:35.292Z,11.67
2023-05-08T08:14:37.491Z,12.17
2023-05-08T08:19:39.216Z,12.25
2023-05-08T08:24:40.875Z,12.49
2023-05-08T08:29:42.675Z,12.55
2023-05-08T08:34:44.306Z,12.85
2023-05-08T08:39:46.165Z,12.98
2023-05-08T08:44:47.909Z,12.04
2023-05-08T08:49:51.047Z,12.09
2023-05-08T08:54:55.310Z,12.38
2023-05-08T08:59:59.649Z,13.11
2023-05-08T09:05:03.266Z,13.76
2023-05-08T09:10:06.283Z,14.40
2023-05-08T09:15:08.327Z,14.66
2023-05-08T09:20:11.545Z,14.58
2023-05-08T09:25:13.967Z,15.13
2023-05-08T09:30:16.107Z,14.68
2023-05-08T09:35:18.086Z,13.70
2023-05-08T09:40:22.114Z,13.97
2023-05-08T09:45:29.757Z,14.62
2023-05-08T09:50:33.086Z,15.33
2023-05-08T09:55:48.171Z,15.26
2023-05-08T10:00:50.045Z,15.43
2023-05-08T10:05:51.864Z,15.16
2023-05-08T10:10:53.561Z,14.24
2023-05-08T10:15:57.059Z,14.07
2023-05-08T10:21:03.236Z,14.81
2023-05-08T10:26:13.614Z,15.71
2023-05-08T10:31:18.366Z,16.70
2023-05-08T10:36:21.272Z,17.33
2023-05-08T10:41:23.789Z,17.92
2023-05-08T10:46:38.114Z,18.35
2023-05-08T10:52:11.032Z,18.57
2023-05-08T10:57:12.906Z,18.54
2023-05-08T11:02:15.836Z,17.76
2023-05-08T11:07:17.801Z,17.09
2023-05-08T11:12:26.912Z,17.14
2023-05-08T11:17:29.188Z,17.05
2023-05-08T11:22:35.206Z,17.33
2023-05-08T11:27:49.210Z,17.51
2023-05-08T11:33:03.039Z,16.90
2023-05-08T11:38:36.356Z,17.01
2023-05-08T11:43:46.944Z,17.52
2023-05-08T11:48:48.856Z,17.82
2023-05-08T11:53:51.570Z,18.23
2023-05-08T11:59:08.738Z,18.63
2023-05-08T12:04:12.331Z,18.74
2023-05-08T12:09:18.669Z,18.79
2023-05-08T12:14:23.230Z,18.34
2023-05-08T12:19:24.892Z,18.23
2023-05-08T12:24:26.918Z,17.77
2023-05-08T12:29:28.792Z,17.34
2023-05-08T12:34:30.601Z,17.87
2023-05-08T12:39:37.766Z,18.04
2023-05-08T12:44:39.682Z,18.32
2023-05-08T12:49:41.409Z,18.92
2023-05-08T12:54:48.572Z,19.48
2023-05-08T12:59:50.573Z,20.11
2023-05-08T13:04:56.202Z,20.44
2023-05-08T13:10:02.235Z,19.75
2023-05-08T13:15:05.113Z,18.01
2023-05-08T13:20:07.548Z,17.24
2023-05-08T13:25:09.490Z,17.32
2023-05-08T13:30:13.021Z,16.67
2023-05-08T13:35:15.163Z,16.12
2023-05-08T13:40:18.207Z,16.38
2023-05-08T13:45:20.049Z,17.71
2023-05-08T13:50:22.309Z,18.01
2023-05-08T13:55:24.272Z,17.17
2023-05-08T14:00:27.942Z,17.51
2023-05-08T14:05:30.031Z,17.56
2023-05-08T14:10:31.757Z,16.47
2023-05-08T14:15:37.299Z,15.98
2023-05-08T14:20:39.580Z,15.78
2023-05-08T14:25:41.338Z,16.36
2023-05-08T14:30:43.052Z,17.50
2023-05-08T14:35:45.905Z,17.97
2023-05-08T14:40:50.780Z,18.27
2023-05-08T14:45:52.518Z,17.81
2023-05-08T14:50:54.235Z,16.45
2023-05-08T14:55:56.496Z,15.49
2023-05-08T15:00:58.268Z,14.90
2023-05-08T15:06:10.235Z,14.68
2023-05-08T15:11:11.924Z,15.62
2023-05-08T15:16:13.758Z,16.96
2023-05-08T15:21:15.579Z,16.73
2023-05-08T15:26:17.356Z,15.77
2023-05-08T15:31:19.037Z,15.57
2023-05-08T15:36:20.816Z,16.51
2023-05-08T15:41:22.500Z,17.38
2023-05-08T15:46:24.366Z,17.33
2023-05-08T15:51:26.507Z,16.29
2023-05-08T15:56:28.348Z,15.35
2023-05-08T16:01:30.156Z,14.62
2023-05-08T16:06:32.639Z,14.14
2023-05-08T16:11:34.353Z,14.20
2023-05-08T16:16:38.295Z,14.54
2023-05-08T16:21:39.988Z,14.55
2023-05-08T16:26:41.684Z,15.29
2023-05-08T16:31:43.436Z,15.00
2023-05-08T16:36:45.883Z,14.42
2023-05-08T16:41:47.725Z,13.81
2023-05-08T16:46:49.652Z,13.46
2023-05-08T16:51:51.436Z,13.25
2023-05-08T16:56:53.220Z,12.87
2023-05-08T17:01:55.433Z,12.42
2023-05-08T17:06:58.628Z,11.99
2023-05-08T17:12:01.835Z,11.81
2023-05-08T17:17:03.659Z,12.55
2023-05-08T17:22:05.353Z,12.61
2023-05-08T17:27:08.033Z,13.00
2023-05-08T17:32:09.829Z,13.87
2023-05-08T17:37:11.881Z,14.63
2023-05-08T17:42:13.597Z,14.92
2023-05-08T17:47:15.307Z,14.88
2023-05-08T17:52:16.984Z,14.64
2023-05-08T17:57:18.817Z,14.18
2023-05-08T18:02:20.513Z,13.48
2023-05-08T18:07:22.426Z,12.58
2023-05-08T18:12:24.190Z,11.79
2023-05-08T18:17:29.324Z,11.20
2023-05-08T18:22:31.175Z,10.75
2023-05-08T18:27:34.506Z,10.24
2023-05-08T18:32:36.781Z,9.71
2023-05-08T18:37:38.557Z,9.24
2023-05-08T18:42:40.246Z,8.86
2023-05-08T18:47:42.094Z,8.53
2023-05-08T18:52:43.934Z,8.26
2023-05-08T18:57:45.606Z,8.01
2023-05-08T19:02:47.399Z,7.80
2023-05-08T19:07:49.272Z,7.61
2023-05-08T19:12:51.081Z,7.42
2023-05-08T19:17:53.019Z,7.23
2023-05-08T19:22:55.054Z,7.06
2023-05-08T19:27:58.689Z,6.98
2023-05-08T19:33:00.398Z,6.96
2023-05-08T19:38:02.153Z,6.92
2023-05-08T19:43:04.033Z,6.84
2023-05-08T19:48:10.588Z,6.71
2023-05-08T19:53:17.856Z,6.55
2023-05-08T19:58:19.616Z,6.42
2023-05-08T20:03:21.475Z,6.30
2023-05-08T20:08:23.373Z,6.14
2023-05-08T20:13:25.417Z,5.94
2023-05-08T20:18:27.197Z,5.82
2023-05-08T20:23:28.914Z,5.73
2023-05-08T20:28:30.899Z,5.63
2023-05-08T20:33:32.631Z,5.53
2023-05-08T20:38:36.545Z,5.42
2023-05-08T20:43:38.591Z,5.30
2023-05-08T20:48:40.323Z,5.19
2023-05-08T20:53:42.104Z,5.13
2023-05-08T20:58:43.852Z,5.10
2023-05-08T21:03:45.547Z,5.06
2023-05-08T21:08:48.575Z,4.99
2023-05-08T21:13:55.492Z,4.85
2023-05-08T21:18:58.424Z,4.74
2023-05-08T21:24:00.402Z,4.70
2023-05-08T21:29:04.359Z,4.71
2023-05-08T21:34:07.229Z,4.79
2023-05-08T21:39:10.845Z,4.87
2023-05-08T21:44:15.503Z,4.90
2023-05-08T21:49:18.425Z,4.90
2023-05-08T21:54:23.246Z,4.92
2023-05-08T21:59:24.939Z,4.91
2023-05-08T22:04:26.605Z,4.91
2023-05-08T22:09:28.215Z,4.94
2023-05-08T22:14:30.227Z,4.96
2023-05-08T22:19:31.951Z,4.98
2023-05-08T22:24:33.766Z,4.95
2023-05-08T22:29:35.479Z,4.90
2023-05-08T22:34:37.196Z,4.82
2023-05-08T22:39:38.843Z,4.75
2023-05-08T22:44:40.538Z,4.72
2023-05-08T22:49:42.497Z,4.67
2023-05-08T22:54:44.263Z,4.60
2023-05-08T22:59:45.924Z,4.53
2023-05-08T23:04:47.668Z,4.47
2023-05-08T23:09:49.944Z,4.41
2023-05-08T23:14:55.769Z,4.31
2023-05-08T23:19:57.476Z,4.15
2023-05-08T23:24:59.313Z,3.97
2023-05-08T23:30:01.106Z,3.88
2023-05-08T23:35:10.730Z,3.84
2023-05-08T23:40:13.570Z,3.83
2023-05-08T23:45:15.601Z,3.79
2023-05-08T23:50:19.004Z,3.74
2023-05-08T23:55:20.867Z,3.77
